Mariq — SVA2152 — position and weather

sailwx.info

Track history (hours):
 
Tides and Currents Weather Stations Pressure Air Temp Water Temp Dewpoint Dewpoint Depression Visibility Wind Speed Wind Dir Waves Ship Positions

Mariq

Last reported at 2015-Aug-30 01:30 UTC. Time now 2015-Aug-30 15:56 UTC.
Position N 37°05' E 027°01'.

Length 57 m.

Type: Tanker. MMSI: 239758424.

Date/timePositionNaut miles runAvg speedWind from/ knotsBaromVisibWave heightAir tempDewpointWater temp
2015-Aug-30 01:30N 37°05' E 027°01'1310.3
2015-Aug-30 00:13N 37°14' E 026°49'1110.0
2015-Aug-29 23:04N 37°19' E 026°36'3 0.4
2015-Aug-29 15:20N 37°19' E 026°33'0 0.0
2015-Aug-29 14:27N 37°19' E 026°33'0 0.0
2015-Aug-29 13:29N 37°19' E 026°33'0 0.0
2015-Aug-29 12:31N 37°19' E 026°33'12 1.7
2015-Aug-29 05:31N 37°15' E 026°46'  
2015-Aug-26 16:25N 36°29' E 028°03'  
2015-Aug-21 22:30N 36°34' E 026°56'1010.1
2015-Aug-21 21:32N 36°38' E 026°45'2210.3
2015-Aug-21 19:23N 36°49' E 026°21'910.4
2015-Aug-21 18:33N 36°52' E 026°11'1010.1
2015-Aug-21 17:31N 36°57' E 025°59'3 0.2
2015-Aug-21 01:30N 36°55' E 025°56'9 9.5
2015-Aug-21 00:33N 37°01' E 025°48'10 9.8
2015-Aug-20 23:33N 37°08' E 025°40'9 8.8
2015-Aug-20 22:33N 37°13' E 025°31'8 8.3
2015-Aug-20 21:33N 37°15' E 025°21'9 8.8
2015-Aug-20 20:33N 37°17' E 025°10'9 8.9
2015-Aug-20 19:33N 37°20' E 024°59'9 8.9
2015-Aug-20 18:33N 37°22' E 024°48'  
Track history (hours):
 
Tides and Currents Weather Stations Pressure Air Temp Water Temp Dewpoint Dewpoint Depression Visibility Wind Speed Wind Dir Waves Ship Positions

Mariq

Last reported at 2015-Aug-30 01:30 UTC. Time now 2015-Aug-30 15:56 UTC.
Position N 37°05' E 027°01'.

Length 57 m.

Type: Tanker. MMSI: 239758424.

Date/timePositionNaut miles runAvg speedWind from/ knotsBaromVisibWave heightAir tempDewpointWater temp
2015-Aug-30 01:30N 37°05' E 027°01'1310.3
2015-Aug-30 00:13N 37°14' E 026°49'1110.0
2015-Aug-29 23:04N 37°19' E 026°36'3 0.4
2015-Aug-29 15:20N 37°19' E 026°33'0 0.0
2015-Aug-29 14:27N 37°19' E 026°33'0 0.0
2015-Aug-29 13:29N 37°19' E 026°33'0 0.0
2015-Aug-29 12:31N 37°19' E 026°33'12 1.7
2015-Aug-29 05:31N 37°15' E 026°46'  
2015-Aug-26 16:25N 36°29' E 028°03'  
2015-Aug-21 22:30N 36°34' E 026°56'1010.1
2015-Aug-21 21:32N 36°38' E 026°45'2210.3
2015-Aug-21 19:23N 36°49' E 026°21'910.4
2015-Aug-21 18:33N 36°52' E 026°11'1010.1
2015-Aug-21 17:31N 36°57' E 025°59'3 0.2
2015-Aug-21 01:30N 36°55' E 025°56'9 9.5
2015-Aug-21 00:33N 37°01' E 025°48'10 9.8
2015-Aug-20 23:33N 37°08' E 025°40'9 8.8
2015-Aug-20 22:33N 37°13' E 025°31'8 8.3
2015-Aug-20 21:33N 37°15' E 025°21'9 8.8
2015-Aug-20 20:33N 37°17' E 025°10'9 8.9
2015-Aug-20 19:33N 37°20' E 024°59'9 8.9
2015-Aug-20 18:33N 37°22' E 024°48'  

Dump ship's entire track history